createdAt,value
2022-11-19T00:02:05.909Z,100326.09
2022-11-19T00:04:33.948Z,100325.28
2022-11-19T00:07:01.835Z,100326.09
2022-11-19T00:09:29.837Z,100302.28
2022-11-19T00:12:16.434Z,100324.41
2022-11-19T00:14:47.358Z,100321.87
2022-11-19T00:17:15.541Z,100321.84
2022-11-19T00:19:43.303Z,100322.69
2022-11-19T00:22:11.461Z,100331.22
2022-11-19T00:24:42.526Z,100333.81
2022-11-19T00:27:10.346Z,100324.41
2022-11-19T00:29:38.141Z,100321.84
2022-11-19T00:32:06.390Z,100300.59
2022-11-19T00:34:34.168Z,100322.75
2022-11-19T00:37:01.983Z,100330.41
2022-11-19T00:39:30.145Z,100336.34
2022-11-19T00:41:57.875Z,100336.34
2022-11-19T00:44:25.724Z,100336.38
2022-11-19T00:46:57.141Z,100308.28
2022-11-19T00:49:25.029Z,100322.72
2022-11-19T00:51:53.977Z,100325.25
2022-11-19T00:54:21.940Z,100327.81
2022-11-19T00:56:49.737Z,100332.94
2022-11-19T00:59:18.109Z,100335.47
2022-11-19T01:01:46.002Z,100338.06
2022-11-19T01:04:16.797Z,100352.53
2022-11-19T01:06:45.049Z,100357.66
2022-11-19T01:09:16.058Z,100359.34
2022-11-19T01:11:43.939Z,100362.75
2022-11-19T01:14:12.174Z,100361.06
2022-11-19T01:16:41.402Z,100361.94
2022-11-19T01:19:11.157Z,100370.44
2022-11-19T01:21:39.322Z,100372.13
2022-11-19T01:24:07.507Z,100384.91
2022-11-19T01:26:35.373Z,100395.97
2022-11-19T01:29:03.565Z,100401.94
2022-11-19T01:31:31.434Z,100407.06
2022-11-19T01:34:00.130Z,100413.03
2022-11-19T01:36:31.718Z,100409.63
2022-11-19T01:38:59.663Z,100412.16
2022-11-19T01:41:33.400Z,100418.12
2022-11-19T01:44:07.875Z,100410.47
2022-11-19T01:46:38.735Z,100421.56
2022-11-19T01:49:13.416Z,100415.56
2022-11-19T01:52:03.383Z,100414.72
2022-11-19T01:54:41.413Z,100434.31
2022-11-19T01:57:15.523Z,100436.87
2022-11-19T01:59:47.357Z,100437.75
2022-11-19T02:02:15.830Z,100447.13
2022-11-19T02:04:47.831Z,100424.94
2022-11-19T02:07:16.471Z,100442.84
2022-11-19T02:09:45.363Z,100448.81
2022-11-19T02:12:25.226Z,100441.97
2022-11-19T02:15:11.327Z,100438.56
2022-11-19T02:18:05.758Z,100453.94
2022-11-19T02:20:44.269Z,100465.00
2022-11-19T02:23:43.311Z,100467.56
2022-11-19T02:26:50.040Z,100475.22
2022-11-19T02:29:29.915Z,100478.63
2022-11-19T02:32:18.611Z,100484.59
2022-11-19T02:35:06.848Z,100488.84
2022-11-19T02:37:56.313Z,100487.16
2022-11-19T02:40:34.354Z,100487.13
2022-11-19T02:43:36.547Z,100482.88
2022-11-19T02:46:14.076Z,100482.88
2022-11-19T02:48:52.935Z,100462.41
2022-11-19T02:51:23.761Z,100472.62
2022-11-19T02:53:51.927Z,100453.87
2022-11-19T02:56:51.839Z,100465.81
2022-11-19T03:00:07.482Z,100476.88
2022-11-19T03:03:01.027Z,100477.75
2022-11-19T03:05:34.050Z,100474.31
2022-11-19T03:08:01.962Z,100480.28
2022-11-19T03:10:42.915Z,100485.41
2022-11-19T03:13:40.289Z,100489.69
2022-11-19T03:16:35.794Z,100489.69
2022-11-19T03:19:20.031Z,100487.97
2022-11-19T03:21:56.756Z,100497.31
2022-11-19T03:25:05.829Z,100504.16
2022-11-19T03:27:47.853Z,100510.12
2022-11-19T03:30:18.084Z,100505.88
2022-11-19T03:33:29.771Z,100511.81
2022-11-19T03:36:04.956Z,100505.88
2022-11-19T03:38:37.068Z,100503.28
2022-11-19T03:41:07.011Z,100507.56
2022-11-19T03:43:40.050Z,100498.19
2022-11-19T03:46:13.671Z,100504.16
2022-11-19T03:48:46.186Z,100504.19
2022-11-19T03:51:20.145Z,100502.44
2022-11-19T03:53:49.448Z,100512.72
2022-11-19T03:56:22.273Z,100505.88
2022-11-19T03:58:50.552Z,100493.09
2022-11-19T04:01:18.494Z,100492.22
2022-11-19T04:04:06.854Z,100493.09
2022-11-19T04:06:34.766Z,100502.50
2022-11-19T04:09:02.863Z,100510.16
2022-11-19T04:11:30.673Z,100498.25
2022-11-19T04:13:58.547Z,100503.34
2022-11-19T04:16:30.283Z,100499.09
2022-11-19T04:18:58.054Z,100503.34
2022-11-19T04:21:29.560Z,100504.22
2022-11-19T04:23:57.390Z,100507.63
2022-11-19T04:26:25.230Z,100517.84
2022-11-19T04:28:53.643Z,100527.25
2022-11-19T04:31:21.574Z,100523.84
2022-11-19T04:33:49.358Z,100505.94
2022-11-19T04:36:17.548Z,100522.97
2022-11-19T04:38:45.351Z,100524.69
2022-11-19T04:41:13.381Z,100534.91
2022-11-19T04:43:41.579Z,100543.44
2022-11-19T04:46:09.335Z,100542.56
2022-11-19T04:48:37.233Z,100542.59
2022-11-19T04:51:08.879Z,100544.31
2022-11-19T04:53:36.769Z,100545.16
2022-11-19T04:56:04.872Z,100546.84
2022-11-19T04:58:36.812Z,100545.16
2022-11-19T05:01:05.012Z,100546.00
2022-11-19T05:03:33.612Z,100554.53
2022-11-19T05:06:01.468Z,100530.69
2022-11-19T05:08:29.414Z,100547.69
2022-11-19T05:10:57.670Z,100499.13
2022-11-19T05:13:25.547Z,100550.25
2022-11-19T05:15:53.342Z,100544.28
2022-11-19T05:18:21.518Z,100544.28
2022-11-19T05:20:52.595Z,100531.50
2022-11-19T05:23:20.877Z,100534.06
2022-11-19T05:25:49.005Z,100556.22
2022-11-19T05:28:16.808Z,100563.91
2022-11-19T05:30:44.718Z,100552.84
2022-11-19T05:33:12.819Z,100551.12
2022-11-19T05:35:40.602Z,100566.50
2022-11-19T05:38:08.754Z,100575.00
2022-11-19T05:40:37.033Z,100577.56
2022-11-19T05:43:08.105Z,100580.97
2022-11-19T05:45:36.418Z,100580.97
2022-11-19T05:48:04.903Z,100581.81
2022-11-19T05:50:32.743Z,100580.13
2022-11-19T05:53:06.086Z,100586.06
2022-11-19T05:55:34.057Z,100580.97
2022-11-19T05:58:01.871Z,100580.09
2022-11-19T06:00:30.214Z,100584.38
2022-11-19T06:02:58.468Z,100591.97
2022-11-19T06:05:26.196Z,100572.31
2022-11-19T06:07:53.875Z,100560.34
2022-11-19T06:10:21.985Z,100551.84
2022-11-19T06:12:49.779Z,100547.66
2022-11-19T06:15:17.868Z,100546.81
2022-11-19T06:17:45.933Z,100556.19
2022-11-19T06:20:13.659Z,100556.19
2022-11-19T06:22:41.443Z,100572.34
2022-11-19T06:25:09.865Z,100587.69
2022-11-19T06:27:37.709Z,100592.81
2022-11-19T06:30:06.878Z,100601.31
2022-11-19T06:32:35.074Z,100600.38
2022-11-19T06:35:02.857Z,100610.53
2022-11-19T06:37:30.788Z,100611.38
2022-11-19T06:39:58.968Z,100609.53
2022-11-19T06:42:39.428Z,100609.50
2022-11-19T06:45:13.085Z,100617.19
2022-11-19T06:47:42.116Z,100620.56
2022-11-19T06:50:11.137Z,100614.50
2022-11-19T06:52:39.064Z,100613.56
2022-11-19T06:55:10.112Z,100615.25
2022-11-19T06:57:39.710Z,100616.94
2022-11-19T07:00:08.065Z,100608.38
2022-11-19T07:02:35.785Z,100628.00
2022-11-19T07:05:04.756Z,100641.59
2022-11-19T07:07:32.656Z,100637.22
2022-11-19T07:10:00.822Z,100639.66
2022-11-19T07:12:34.074Z,100654.06
2022-11-19T07:15:04.495Z,100658.25
2022-11-19T07:17:33.217Z,100666.81
2022-11-19T07:20:01.093Z,100664.19
2022-11-19T07:22:31.142Z,100663.28
2022-11-19T07:24:59.498Z,100665.00
2022-11-19T07:27:27.336Z,100666.69
2022-11-19T07:29:55.146Z,100669.25
2022-11-19T07:32:27.157Z,100658.78
2022-11-19T07:34:58.049Z,100662.12
2022-11-19T07:37:29.464Z,100678.50
2022-11-19T07:39:57.197Z,100674.87
2022-11-19T07:42:46.790Z,100674.13
2022-11-19T07:45:15.876Z,100669.84
2022-11-19T07:47:43.648Z,100679.16
2022-11-19T07:50:12.016Z,100675.75
2022-11-19T07:52:40.416Z,100687.72
2022-11-19T07:55:08.809Z,100688.47
2022-11-19T07:57:39.642Z,100688.53
2022-11-19T08:00:08.471Z,100684.03
2022-11-19T08:02:40.277Z,100691.78
2022-11-19T08:05:08.810Z,100682.19
2022-11-19T08:07:39.633Z,100684.78
2022-11-19T08:10:08.283Z,100685.75
2022-11-19T08:12:36.816Z,100689.03
2022-11-19T08:15:04.878Z,100691.66
2022-11-19T08:17:51.479Z,100690.00
2022-11-19T08:20:19.824Z,100682.34
2022-11-19T08:22:47.518Z,100685.78
2022-11-19T08:25:15.393Z,100700.31
2022-11-19T08:27:43.837Z,100681.44
2022-11-19T08:30:11.828Z,100684.78
2022-11-19T08:32:42.849Z,100670.25
2022-11-19T08:35:11.061Z,100674.47
2022-11-19T08:37:38.820Z,100662.28
2022-11-19T08:40:07.236Z,100659.78
2022-11-19T08:42:53.629Z,100656.22
2022-11-19T08:45:22.715Z,100657.47
2022-11-19T08:47:50.860Z,100660.13
2022-11-19T08:50:19.072Z,100653.41
2022-11-19T08:52:46.981Z,100659.41
2022-11-19T08:55:15.187Z,100662.69
2022-11-19T08:57:42.978Z,100653.25
2022-11-19T09:00:11.480Z,100658.28
2022-11-19T09:02:39.718Z,100660.69
2022-11-19T09:05:11.882Z,100651.94
2022-11-19T09:07:45.983Z,100661.38
2022-11-19T09:10:13.867Z,100659.53
2022-11-19T09:12:45.062Z,100669.66
2022-11-19T09:15:13.436Z,100682.38
2022-11-19T09:17:46.949Z,100682.31
2022-11-19T09:20:19.069Z,100685.44
2022-11-19T09:22:46.995Z,100689.38
2022-11-19T09:25:15.437Z,100693.25
2022-11-19T09:27:43.311Z,100697.38
2022-11-19T09:30:11.408Z,100708.22
2022-11-19T09:32:39.838Z,100715.97
2022-11-19T09:35:08.005Z,100721.41
2022-11-19T09:37:38.712Z,100718.97
2022-11-19T09:40:08.682Z,100709.75
2022-11-19T09:42:57.906Z,100709.38
2022-11-19T09:45:30.383Z,100709.88
2022-11-19T09:48:13.664Z,100713.59
2022-11-19T09:50:53.594Z,100710.28
2022-11-19T09:53:24.692Z,100717.12
2022-11-19T09:55:54.579Z,100716.88
2022-11-19T09:58:38.266Z,100714.03
2022-11-19T10:01:06.958Z,100711.31
2022-11-19T10:03:35.138Z,100708.25
2022-11-19T10:06:12.035Z,100713.88
2022-11-19T10:08:55.399Z,100707.00
2022-11-19T10:11:44.421Z,100715.34
2022-11-19T10:14:49.402Z,100708.13
2022-11-19T10:17:26.016Z,100707.00
2022-11-19T10:20:12.517Z,100699.03
2022-11-19T10:22:57.719Z,100699.03
2022-11-19T10:25:38.575Z,100696.91
2022-11-19T10:28:19.516Z,100675.09
2022-11-19T10:30:55.658Z,100681.37
2022-11-19T10:33:35.822Z,100684.47
2022-11-19T10:36:14.688Z,100676.44
2022-11-19T10:39:01.291Z,100658.34
2022-11-19T10:41:43.257Z,100663.06
2022-11-19T10:44:40.672Z,100649.91
2022-11-19T10:47:22.647Z,100645.31
2022-11-19T10:49:54.797Z,100646.87
2022-11-19T10:52:38.342Z,100638.38
2022-11-19T10:58:19.158Z,100644.03
2022-11-19T11:00:47.660Z,100647.56
2022-11-19T11:03:23.011Z,100650.53
2022-11-19T11:06:05.604Z,100653.44
2022-11-19T11:08:34.512Z,100654.50
2022-11-19T11:11:05.666Z,100641.78
2022-11-19T11:13:57.337Z,100642.41
2022-11-19T11:16:47.031Z,100637.94
2022-11-19T11:19:20.206Z,100650.13
2022-11-19T11:21:53.115Z,100642.53
2022-11-19T11:24:22.143Z,100641.81
2022-11-19T11:27:24.545Z,100636.44
2022-11-19T11:30:15.109Z,100643.38
2022-11-19T11:32:43.566Z,100639.97
2022-11-19T11:35:34.751Z,100639.06
2022-11-19T11:38:03.994Z,100637.41
2022-11-19T11:40:32.408Z,100638.91
2022-11-19T11:43:00.152Z,100633.72
2022-11-19T11:45:33.193Z,100632.50
2022-11-19T11:48:19.841Z,100619.22
2022-11-19T11:50:48.195Z,100605.12
2022-11-19T11:53:28.827Z,100605.47
2022-11-19T11:56:03.268Z,100607.41
2022-11-19T11:58:35.120Z,100586.59
2022-11-19T12:01:20.158Z,100587.44
2022-11-19T12:03:59.606Z,100588.41
2022-11-19T12:06:40.423Z,100585.56
2022-11-19T12:09:29.991Z,100592.94
2022-11-19T12:12:09.111Z,100588.91
2022-11-19T12:14:37.303Z,100577.00
2022-11-19T12:17:35.838Z,100593.03
2022-11-19T12:20:04.151Z,100579.53
2022-11-19T12:22:57.090Z,100580.25
2022-11-19T12:25:46.771Z,100579.72
2022-11-19T12:28:39.741Z,100589.00
2022-11-19T12:31:19.664Z,100590.72
2022-11-19T12:33:56.486Z,100601.00
2022-11-19T12:36:39.646Z,100605.44
2022-11-19T12:39:39.726Z,100604.41
2022-11-19T12:42:30.066Z,100603.37
2022-11-19T12:45:17.794Z,100605.75
2022-11-19T12:48:10.665Z,100606.84
2022-11-19T12:51:04.711Z,100602.63
2022-11-19T12:54:07.230Z,100599.50
2022-11-19T12:56:46.985Z,100600.41
2022-11-19T12:59:52.462Z,100597.72
2022-11-19T13:02:41.370Z,100588.12
2022-11-19T13:05:37.712Z,100584.94
2022-11-19T13:08:12.944Z,100580.34
2022-11-19T13:10:45.744Z,100572.87
2022-11-19T13:13:17.677Z,100563.34
2022-11-19T13:16:03.197Z,100561.81
2022-11-19T13:18:34.751Z,100556.69
2022-11-19T13:21:16.908Z,100555.53
2022-11-19T13:23:48.724Z,100556.59
2022-11-19T13:26:32.512Z,100559.06
2022-11-19T13:29:05.968Z,100563.47
2022-11-19T13:31:53.359Z,100552.31
2022-11-19T13:34:38.565Z,100545.28
2022-11-19T13:37:16.173Z,100552.25
2022-11-19T13:39:52.492Z,100537.28
2022-11-19T13:42:41.420Z,100522.31
2022-11-19T13:45:16.049Z,100538.63
2022-11-19T13:48:00.229Z,100528.00
2022-11-19T13:50:39.823Z,100531.56
2022-11-19T13:53:42.630Z,100523.16
2022-11-19T13:56:15.853Z,100519.56
2022-11-19T13:58:49.907Z,100517.41
2022-11-19T14:01:28.441Z,100510.38
2022-11-19T14:04:14.551Z,100502.22
2022-11-19T14:06:50.325Z,100516.81
2022-11-19T14:10:02.997Z,100504.87
2022-11-19T14:13:09.989Z,100509.94
2022-11-19T14:16:18.681Z,100507.72
2022-11-19T14:19:08.624Z,100508.84
2022-11-19T14:21:58.164Z,100510.84
2022-11-19T14:24:44.736Z,100508.53
2022-11-19T14:27:29.719Z,100501.94
2022-11-19T14:30:19.573Z,100496.62
2022-11-19T14:32:52.130Z,100505.37
2022-11-19T14:35:23.921Z,100507.53
2022-11-19T14:38:50.798Z,100504.56
2022-11-19T14:41:30.750Z,100506.84
2022-11-19T14:44:15.644Z,100505.75
2022-11-19T14:46:47.326Z,100492.75
2022-11-19T14:49:32.184Z,100498.97
2022-11-19T14:52:01.136Z,100493.91
2022-11-19T14:54:45.459Z,100499.13
2022-11-19T14:57:28.351Z,100491.19
2022-11-19T15:00:04.706Z,100489.50
2022-11-19T15:02:32.570Z,100491.37
2022-11-19T15:05:19.398Z,100482.72
2022-11-19T15:07:56.223Z,100479.31
2022-11-19T15:10:30.653Z,100464.88
2022-11-19T15:13:26.563Z,100470.44
2022-11-19T15:16:17.825Z,100452.12
2022-11-19T15:18:45.729Z,100476.69
2022-11-19T15:21:29.124Z,100474.81
2022-11-19T15:24:15.772Z,100484.97
2022-11-19T15:26:49.750Z,100479.03
2022-11-19T15:29:23.954Z,100475.50
2022-11-19T15:32:19.676Z,100468.72
2022-11-19T15:35:09.340Z,100468.06
2022-11-19T15:37:49.164Z,100470.00
2022-11-19T15:40:21.656Z,100474.22
2022-11-19T15:43:08.554Z,100464.53
2022-11-19T15:46:01.819Z,100463.78
2022-11-19T15:49:21.458Z,100460.41
2022-11-19T15:52:04.528Z,100462.72
2022-11-19T15:54:34.614Z,100458.66
2022-11-19T15:57:04.486Z,100449.41
2022-11-19T15:59:39.465Z,100452.91
2022-11-19T16:02:19.982Z,100454.19
2022-11-19T16:04:51.190Z,100443.25
2022-11-19T16:10:19.911Z,100453.31
2022-11-19T16:13:13.999Z,100446.00
2022-11-19T16:16:11.801Z,100451.75
2022-11-19T16:18:50.841Z,100442.09
2022-11-19T16:21:27.893Z,100435.81
2022-11-19T16:24:14.982Z,100431.94
2022-11-19T16:26:44.587Z,100423.47
2022-11-19T16:29:22.385Z,100412.84
2022-11-19T16:31:56.998Z,100420.78
2022-11-19T16:34:29.494Z,100411.94
2022-11-19T16:36:58.498Z,100410.37
2022-11-19T16:39:32.016Z,100405.31
2022-11-19T16:42:20.053Z,100401.59
2022-11-19T16:44:50.498Z,100399.25
2022-11-19T16:47:38.124Z,100395.09
2022-11-19T16:50:27.495Z,100406.84
2022-11-19T16:52:56.536Z,100401.03
2022-11-19T16:55:24.547Z,100403.41
2022-11-19T16:58:11.659Z,100402.72
2022-11-19T17:00:41.429Z,100395.00
2022-11-19T17:03:21.371Z,100397.28
2022-11-19T17:05:52.355Z,100396.59
2022-11-19T17:08:24.115Z,100387.59
2022-11-19T17:11:33.989Z,100388.03
2022-11-19T17:14:23.241Z,100383.72
2022-11-19T17:16:53.866Z,100376.19
2022-11-19T17:19:33.644Z,100382.03
2022-11-19T17:22:14.721Z,100378.34
2022-11-19T17:24:44.902Z,100381.09
2022-11-19T17:27:28.005Z,100382.66
2022-11-19T17:30:02.078Z,100384.75
2022-11-19T17:33:01.249Z,100385.87
2022-11-19T17:35:46.408Z,100378.53
2022-11-19T17:38:30.192Z,100366.84
2022-11-19T17:41:01.318Z,100376.72
2022-11-19T17:43:58.819Z,100380.38
2022-11-19T17:46:29.060Z,100372.09
2022-11-19T17:48:57.436Z,100369.69
2022-11-19T17:51:26.718Z,100357.38
2022-11-19T17:53:56.925Z,100361.16
2022-11-19T17:56:29.965Z,100363.88
2022-11-19T17:58:59.953Z,100366.69
2022-11-19T18:01:28.552Z,100357.59
2022-11-19T18:03:56.950Z,100363.75
2022-11-19T18:06:24.955Z,100361.44
2022-11-19T18:08:52.932Z,100354.69
2022-11-19T18:11:26.532Z,100341.44
2022-11-19T18:14:10.848Z,100344.00
2022-11-19T18:16:42.136Z,100345.13
2022-11-19T18:19:13.145Z,100347.78
2022-11-19T18:21:43.412Z,100338.03
2022-11-19T18:24:12.579Z,100348.87
2022-11-19T18:26:40.715Z,100342.97
2022-11-19T18:29:09.196Z,100345.34
2022-11-19T18:31:44.526Z,100330.56
2022-11-19T18:34:23.701Z,100337.81
2022-11-19T18:36:51.915Z,100337.25
2022-11-19T18:39:20.220Z,100330.66
2022-11-19T18:41:49.129Z,100336.25
2022-11-19T18:44:33.849Z,100332.44
2022-11-19T18:47:11.984Z,100339.84
2022-11-19T18:49:40.584Z,100333.50
2022-11-19T18:52:12.279Z,100332.25
2022-11-19T18:54:40.200Z,100340.44
2022-11-19T18:57:10.187Z,100331.06
2022-11-19T18:59:38.687Z,100328.84
2022-11-19T19:02:07.238Z,100324.19
2022-11-19T19:04:35.568Z,100321.72
2022-11-19T19:07:03.306Z,100325.78
2022-11-19T19:09:31.144Z,100325.16
2022-11-19T19:12:17.647Z,100317.50
2022-11-19T19:14:47.648Z,100333.03
2022-11-19T19:17:16.787Z,100328.63
2022-11-19T19:19:45.030Z,100336.81
2022-11-19T19:22:16.099Z,100336.56
2022-11-19T19:24:44.549Z,100334.78
2022-11-19T19:27:12.435Z,100326.41
2022-11-19T19:29:40.300Z,100324.31
2022-11-19T19:32:08.649Z,100317.22
2022-11-19T19:34:37.014Z,100324.97
2022-11-19T19:37:05.612Z,100317.25
2022-11-19T19:39:33.947Z,100312.75
2022-11-19T19:42:01.762Z,100310.66
2022-11-19T19:44:29.620Z,100294.84
2022-11-19T19:47:00.809Z,100299.13
2022-11-19T19:49:28.907Z,100297.53
2022-11-19T19:51:57.168Z,100294.97
2022-11-19T19:54:25.148Z,100293.91
2022-11-19T19:56:53.508Z,100285.38
2022-11-19T19:59:22.845Z,100287.38
2022-11-19T20:01:51.876Z,100288.84
2022-11-19T20:04:20.046Z,100298.34
2022-11-19T20:06:48.486Z,100301.56
2022-11-19T20:09:19.552Z,100295.66
2022-11-19T20:11:47.819Z,100298.03
2022-11-19T20:14:15.721Z,100305.25
2022-11-19T20:16:43.622Z,100314.31
2022-11-19T20:19:15.546Z,100325.66
2022-11-19T20:21:43.740Z,100330.91
2022-11-19T20:24:13.668Z,100329.97
2022-11-19T20:26:42.958Z,100336.38
2022-11-19T20:29:13.477Z,100330.16
2022-11-19T20:31:46.386Z,100324.72
2022-11-19T20:34:15.397Z,100323.88
2022-11-19T20:36:44.365Z,100322.25
2022-11-19T20:39:12.955Z,100326.56
2022-11-19T20:42:02.649Z,100323.03
2022-11-19T20:44:30.792Z,100323.38
2022-11-19T20:47:02.489Z,100323.25
2022-11-19T20:49:35.971Z,100322.06
2022-11-19T20:52:04.320Z,100322.19
2022-11-19T20:54:32.972Z,100326.25
2022-11-19T20:57:01.078Z,100324.81
2022-11-19T20:59:29.653Z,100326.53
2022-11-19T21:01:58.077Z,100334.28
2022-11-19T21:04:28.780Z,100328.81
2022-11-19T21:06:57.165Z,100330.53
2022-11-19T21:09:25.638Z,100327.25
2022-11-19T21:11:53.683Z,100329.00
2022-11-19T21:14:21.969Z,100332.28
2022-11-19T21:16:49.931Z,100325.31
2022-11-19T21:19:18.023Z,100333.09
2022-11-19T21:21:46.320Z,100334.88
2022-11-19T21:24:17.081Z,100332.44
2022-11-19T21:26:45.363Z,100336.59
2022-11-19T21:29:13.637Z,100317.84
2022-11-19T21:31:50.377Z,100335.94
2022-11-19T21:34:20.977Z,100339.97
2022-11-19T21:36:49.866Z,100339.16
2022-11-19T21:39:19.734Z,100346.75
2022-11-19T21:41:48.177Z,100341.16
2022-11-19T21:44:21.122Z,100340.75
2022-11-19T21:46:50.736Z,100339.19
2022-11-19T21:49:22.724Z,100339.97
2022-11-19T21:51:51.212Z,100338.97
2022-11-19T21:54:19.279Z,100344.50
2022-11-19T21:56:47.657Z,100340.75
2022-11-19T21:59:15.825Z,100344.38
2022-11-19T22:01:43.627Z,100329.81
2022-11-19T22:04:15.761Z,100345.03
2022-11-19T22:06:43.579Z,100338.19
2022-11-19T22:09:11.754Z,100335.00
2022-11-19T22:11:39.415Z,100338.03
2022-11-19T22:14:09.006Z,100334.88
2022-11-19T22:16:39.993Z,100335.75
2022-11-19T22:19:14.184Z,100321.72
2022-11-19T22:21:42.465Z,100322.94
2022-11-19T22:26:58.238Z,100320.03
2022-11-19T22:29:26.047Z,100319.06
2022-11-19T22:31:53.831Z,100320.19
2022-11-19T22:34:21.934Z,100309.00
2022-11-19T22:36:50.104Z,100314.16
2022-11-19T22:39:18.841Z,100319.16
2022-11-19T22:41:47.200Z,100315.84
2022-11-19T22:44:15.047Z,100319.94
2022-11-19T22:46:42.933Z,100320.31
2022-11-19T22:49:11.362Z,100324.72
2022-11-19T22:51:39.120Z,100327.09
2022-11-19T22:54:16.751Z,100314.03
2022-11-19T22:56:44.857Z,100314.00
2022-11-19T22:59:12.941Z,100317.63
2022-11-19T23:01:40.760Z,100324.81
2022-11-19T23:04:15.275Z,100326.28
2022-11-19T23:06:43.047Z,100325.03
2022-11-19T23:09:11.252Z,100323.19
2022-11-19T23:11:57.594Z,100315.59
2022-11-19T23:14:25.854Z,100314.63
2022-11-19T23:16:53.637Z,100322.44
2022-11-19T23:19:21.825Z,100319.34
2022-11-19T23:21:50.237Z,100332.19
2022-11-19T23:24:17.943Z,100330.31
2022-11-19T23:26:45.739Z,100334.97
2022-11-19T23:29:16.948Z,100335.75
2022-11-19T23:31:44.698Z,100333.03
2022-11-19T23:34:12.506Z,100337.03
2022-11-19T23:36:41.969Z,100331.78
2022-11-19T23:39:15.238Z,100340.84
2022-11-19T23:41:44.360Z,100332.56
2022-11-19T23:44:12.489Z,100335.84
2022-11-19T23:46:40.673Z,100334.69
2022-11-19T23:49:08.964Z,100339.03
2022-11-19T23:51:40.313Z,100339.53
2022-11-19T23:54:08.668Z,100337.78
2022-11-19T23:56:36.762Z,100322.97
2022-11-19T23:59:05.597Z,100346.63
